createdAt,value
2018-10-19T00:01:20.449Z,13.14
2018-10-19T00:03:48.864Z,13.15
2018-10-19T00:06:17.358Z,13.16
2018-10-19T00:08:45.854Z,13.14
2018-10-19T00:11:14.416Z,13.14
2018-10-19T00:13:42.775Z,13.12
2018-10-19T00:16:11.212Z,13.12
2018-10-19T00:18:39.648Z,13.11
2018-10-19T00:21:08.150Z,13.10
2018-10-19T00:23:36.447Z,13.08
2018-10-19T00:26:04.962Z,13.07
2018-10-19T00:28:33.355Z,13.06
2018-10-19T00:31:01.766Z,13.05
2018-10-19T00:33:30.202Z,13.06
2018-10-19T00:35:58.585Z,13.04
2018-10-19T00:38:27.001Z,13.05
2018-10-19T00:40:55.502Z,13.01
2018-10-19T00:43:23.893Z,13.01
2018-10-19T00:45:52.401Z,13.00
2018-10-19T00:48:21.358Z,12.98
2018-10-19T00:50:49.767Z,12.98
2018-10-19T00:53:18.193Z,12.98
2018-10-19T00:55:46.685Z,12.96
2018-10-19T00:58:15.105Z,12.95
2018-10-19T01:00:43.624Z,12.94
2018-10-19T01:03:12.084Z,12.93
2018-10-19T01:05:41.083Z,12.95
2018-10-19T01:08:10.080Z,12.96
2018-10-19T01:10:38.605Z,12.93
2018-10-19T01:13:07.031Z,12.93
2018-10-19T01:15:35.445Z,12.95
2018-10-19T01:18:03.921Z,12.92
2018-10-19T01:20:32.348Z,12.90
2018-10-19T01:23:00.813Z,12.89
2018-10-19T01:25:29.289Z,12.88
2018-10-19T01:27:57.735Z,12.88
2018-10-19T01:30:26.177Z,12.89
2018-10-19T01:32:54.622Z,12.89
2018-10-19T01:35:23.036Z,12.89
2018-10-19T01:37:51.549Z,12.88
2018-10-19T01:40:20.006Z,12.88
2018-10-19T01:42:48.428Z,12.88
2018-10-19T01:45:16.836Z,12.85
2018-10-19T01:47:45.263Z,12.83
2018-10-19T01:50:13.664Z,12.85
2018-10-19T01:52:42.225Z,12.85
2018-10-19T01:55:10.627Z,12.84
2018-10-19T01:57:39.100Z,12.86
2018-10-19T02:00:07.980Z,12.88
2018-10-19T02:02:36.565Z,12.86
2018-10-19T02:05:05.027Z,12.87
2018-10-19T02:07:33.532Z,12.87
2018-10-19T02:10:01.948Z,12.85
2018-10-19T02:12:30.393Z,12.85
2018-10-19T02:14:58.802Z,12.83
2018-10-19T02:17:27.226Z,12.81
2018-10-19T02:19:55.642Z,12.82
2018-10-19T02:22:23.995Z,12.81
2018-10-19T02:24:52.460Z,12.82
2018-10-19T02:27:20.942Z,12.81
2018-10-19T02:29:49.338Z,12.82
2018-10-19T02:32:17.777Z,12.80
2018-10-19T02:34:46.180Z,12.81
2018-10-19T02:37:14.584Z,12.79
2018-10-19T02:39:42.976Z,12.77
2018-10-19T02:42:11.409Z,12.74
2018-10-19T02:44:39.852Z,12.76
2018-10-19T02:47:09.234Z,12.76
2018-10-19T02:49:37.601Z,12.75
2018-10-19T02:52:06.773Z,12.74
2018-10-19T02:54:35.200Z,12.73
2018-10-19T02:57:03.636Z,12.72
2018-10-19T02:59:32.070Z,12.69
2018-10-19T03:02:00.485Z,12.42
2018-10-19T03:04:28.932Z,12.67
2018-10-19T03:06:57.319Z,12.69
2018-10-19T03:09:25.708Z,12.70
2018-10-19T03:11:54.129Z,12.68
2018-10-19T03:14:22.573Z,12.63
2018-10-19T03:16:50.963Z,12.58
2018-10-19T03:19:19.418Z,12.61
2018-10-19T03:21:47.824Z,12.58
2018-10-19T03:24:16.245Z,12.52
2018-10-19T03:26:44.645Z,12.51
2018-10-19T03:29:13.175Z,12.51
2018-10-19T03:31:41.459Z,12.46
2018-10-19T03:34:09.854Z,12.44
2018-10-19T03:36:38.225Z,12.43
2018-10-19T03:39:07.925Z,12.44
2018-10-19T03:41:36.347Z,12.38
2018-10-19T03:44:04.889Z,12.40
2018-10-19T03:46:33.342Z,12.35
2018-10-19T03:49:02.024Z,12.30
2018-10-19T03:51:30.472Z,12.26
2018-10-19T03:53:58.848Z,12.20
2018-10-19T03:56:27.236Z,12.14
2018-10-19T03:58:55.680Z,12.13
2018-10-19T04:01:24.055Z,12.13
2018-10-19T04:03:52.510Z,12.07
2018-10-19T04:06:20.936Z,12.00
2018-10-19T04:08:49.315Z,12.05
2018-10-19T04:11:17.770Z,11.98
2018-10-19T04:13:46.183Z,11.97
2018-10-19T04:16:14.624Z,11.98
2018-10-19T04:18:43.032Z,11.89
2018-10-19T04:21:11.537Z,11.90
2018-10-19T04:23:39.872Z,11.91
2018-10-19T04:26:08.298Z,11.87
2018-10-19T04:28:36.696Z,11.84
2018-10-19T04:31:05.136Z,11.79
2018-10-19T04:33:33.544Z,11.75
2018-10-19T04:36:01.996Z,11.75
2018-10-19T04:38:30.427Z,11.73
2018-10-19T04:40:58.905Z,11.75
2018-10-19T04:43:27.196Z,11.71
2018-10-19T04:45:55.660Z,11.64
2018-10-19T04:48:24.066Z,11.61
2018-10-19T04:50:52.494Z,11.57
2018-10-19T04:53:20.965Z,11.59
2018-10-19T04:55:49.380Z,11.61
2018-10-19T04:58:17.782Z,11.59
2018-10-19T05:00:46.215Z,11.58
2018-10-19T05:03:14.696Z,11.58
2018-10-19T05:05:43.143Z,11.63
2018-10-19T05:08:11.524Z,11.63
2018-10-19T05:10:39.875Z,11.65
2018-10-19T05:13:08.386Z,11.65
2018-10-19T05:15:36.704Z,11.65
2018-10-19T05:18:05.360Z,11.66
2018-10-19T05:20:33.774Z,11.69
2018-10-19T05:23:02.323Z,11.69
2018-10-19T05:25:30.676Z,11.68
2018-10-19T05:27:59.052Z,11.63
2018-10-19T05:30:27.443Z,11.63
2018-10-19T05:32:55.910Z,11.61
2018-10-19T05:35:24.304Z,11.64
2018-10-19T05:37:52.717Z,11.65
2018-10-19T05:40:21.144Z,11.66
2018-10-19T05:42:49.646Z,11.62
2018-10-19T05:45:18.075Z,11.62
2018-10-19T05:47:46.493Z,11.64
2018-10-19T05:50:14.920Z,11.65
2018-10-19T05:52:43.308Z,11.65
2018-10-19T05:55:11.753Z,11.69
2018-10-19T05:57:40.159Z,11.71
2018-10-19T06:00:09.607Z,11.72
2018-10-19T06:02:38.122Z,11.74
2018-10-19T06:05:07.310Z,11.73
2018-10-19T06:07:35.708Z,11.74
2018-10-19T06:10:04.583Z,11.74
2018-10-19T06:12:32.960Z,11.74
2018-10-19T06:15:01.361Z,11.70
2018-10-19T06:17:29.772Z,11.70
2018-10-19T06:19:58.210Z,11.72
2018-10-19T06:22:26.637Z,11.72
2018-10-19T06:24:55.055Z,11.73
2018-10-19T06:27:23.478Z,11.72
2018-10-19T06:29:51.884Z,11.72
2018-10-19T06:32:20.369Z,11.72
2018-10-19T06:34:48.828Z,11.75
2018-10-19T06:37:17.278Z,11.74
2018-10-19T06:39:46.009Z,11.73
2018-10-19T06:42:14.458Z,11.78
2018-10-19T06:44:42.848Z,11.82
2018-10-19T06:47:11.388Z,11.84
2018-10-19T06:49:39.758Z,11.81
2018-10-19T06:52:08.215Z,11.90
2018-10-19T06:54:36.597Z,11.93
2018-10-19T06:57:05.244Z,11.90
2018-10-19T06:59:33.715Z,11.91
2018-10-19T07:02:02.110Z,11.92
2018-10-19T07:04:30.511Z,11.93
2018-10-19T07:06:58.918Z,11.93
2018-10-19T07:09:27.326Z,11.98
2018-10-19T07:11:55.712Z,11.97
2018-10-19T07:14:24.116Z,12.00
2018-10-19T07:16:52.540Z,12.02
2018-10-19T07:19:20.985Z,12.10
2018-10-19T07:21:49.508Z,12.11
2018-10-19T07:24:17.867Z,12.10
2018-10-19T07:26:46.319Z,12.12
2018-10-19T07:29:14.746Z,12.13
2018-10-19T07:31:43.181Z,12.14
2018-10-19T07:34:11.613Z,12.16
2018-10-19T07:36:40.065Z,12.13
2018-10-19T07:39:09.192Z,12.13
2018-10-19T07:41:37.627Z,12.17
2018-10-19T07:44:06.383Z,12.19
2018-10-19T07:46:34.786Z,12.21
2018-10-19T07:49:03.209Z,12.22
2018-10-19T07:51:31.673Z,12.25
2018-10-19T07:54:00.130Z,12.27
2018-10-19T07:56:28.528Z,12.28
2018-10-19T07:58:56.964Z,12.33
2018-10-19T08:01:25.361Z,12.35
2018-10-19T08:03:53.764Z,12.40
2018-10-19T08:06:22.254Z,12.45
2018-10-19T08:08:50.629Z,12.50
2018-10-19T08:11:19.107Z,12.54
2018-10-19T08:13:47.461Z,12.60
2018-10-19T08:16:15.897Z,12.68
2018-10-19T08:18:44.329Z,12.72
2018-10-19T08:21:12.803Z,12.75
2018-10-19T08:23:41.236Z,12.78
2018-10-19T08:26:09.644Z,12.79
2018-10-19T08:28:38.087Z,12.85
2018-10-19T08:31:06.652Z,12.91
2018-10-19T08:33:35.372Z,12.93
2018-10-19T08:36:03.904Z,12.89
2018-10-19T08:38:32.317Z,12.88
2018-10-19T08:41:00.789Z,12.87
2018-10-19T08:43:29.135Z,12.86
2018-10-19T08:46:01.714Z,12.89
2018-10-19T08:48:30.124Z,12.89
2018-10-19T08:50:58.576Z,12.93
2018-10-19T08:53:27.041Z,12.97
2018-10-19T08:55:55.405Z,13.02
2018-10-19T08:58:23.869Z,13.05
2018-10-19T09:00:52.230Z,13.05
2018-10-19T09:03:20.676Z,13.08
2018-10-19T09:05:49.088Z,13.13
2018-10-19T09:08:17.487Z,13.18
2018-10-19T09:10:45.997Z,13.24
2018-10-19T09:13:14.364Z,13.29
2018-10-19T09:15:42.814Z,13.34
2018-10-19T09:18:11.437Z,13.32
2018-10-19T09:20:39.859Z,13.27
2018-10-19T09:23:08.335Z,13.26
2018-10-19T09:25:36.765Z,13.21
2018-10-19T09:28:05.235Z,13.22
2018-10-19T09:30:33.742Z,13.22
2018-10-19T09:33:02.166Z,13.22
2018-10-19T09:35:30.559Z,13.21
2018-10-19T09:37:58.923Z,13.20
2018-10-19T09:40:27.335Z,13.20
2018-10-19T09:42:55.791Z,13.18
2018-10-19T09:45:24.170Z,13.18
2018-10-19T09:47:52.641Z,13.16
2018-10-19T09:50:21.088Z,13.21
2018-10-19T09:52:49.471Z,13.28
2018-10-19T09:55:17.929Z,13.32
2018-10-19T09:57:46.249Z,13.33
2018-10-19T10:00:19.829Z,13.35
2018-10-19T10:02:49.156Z,13.39
2018-10-19T10:05:17.675Z,13.42
2018-10-19T10:07:46.044Z,13.46
2018-10-19T10:10:14.445Z,13.51
2018-10-19T10:12:42.872Z,13.52
2018-10-19T10:15:11.487Z,13.55
2018-10-19T10:17:39.793Z,13.57
2018-10-19T10:20:08.700Z,13.57
2018-10-19T10:22:37.100Z,13.56
2018-10-19T10:25:06.581Z,13.64
2018-10-19T10:27:35.063Z,13.71
2018-10-19T10:30:03.641Z,13.76
2018-10-19T10:32:32.061Z,13.79
2018-10-19T10:35:00.525Z,13.85
2018-10-19T10:37:28.977Z,13.91
2018-10-19T10:39:57.390Z,13.94
2018-10-19T10:42:25.819Z,13.91
2018-10-19T10:44:54.209Z,13.84
2018-10-19T10:47:22.615Z,13.77
2018-10-19T10:49:50.991Z,13.74
2018-10-19T10:52:19.396Z,13.74
2018-10-19T10:54:47.843Z,13.77
2018-10-19T10:57:16.817Z,13.78
2018-10-19T10:59:46.232Z,13.82
2018-10-19T11:02:14.653Z,13.88
2018-10-19T11:04:43.079Z,13.97
2018-10-19T11:07:11.592Z,14.09
2018-10-19T11:09:39.998Z,14.20
2018-10-19T11:12:08.444Z,14.31
2018-10-19T11:14:36.851Z,14.34
2018-10-19T11:17:05.352Z,14.40
2018-10-19T11:19:33.750Z,14.41
2018-10-19T11:22:02.843Z,14.43
2018-10-19T11:24:31.267Z,14.47
2018-10-19T11:26:59.728Z,14.46
2018-10-19T11:29:28.097Z,14.45
2018-10-19T11:31:56.496Z,14.46
2018-10-19T11:34:24.906Z,14.49
2018-10-19T11:36:53.307Z,14.50
2018-10-19T11:39:21.620Z,14.48
2018-10-19T11:41:50.029Z,14.50
2018-10-19T11:44:18.468Z,14.51
2018-10-19T11:46:46.970Z,14.52
2018-10-19T11:49:15.847Z,14.55
2018-10-19T11:51:44.213Z,14.57
2018-10-19T11:54:12.615Z,14.57
2018-10-19T11:56:41.514Z,14.62
2018-10-19T11:59:09.875Z,14.62
2018-10-19T12:01:39.128Z,14.62
2018-10-19T12:04:07.588Z,14.63
2018-10-19T12:06:35.976Z,14.65
2018-10-19T12:09:05.679Z,14.68
2018-10-19T12:11:34.053Z,14.71
2018-10-19T12:14:02.437Z,14.71
2018-10-19T12:16:30.933Z,14.70
2018-10-19T12:18:59.365Z,14.71
2018-10-19T12:21:27.747Z,14.68
2018-10-19T12:23:56.163Z,14.64
2018-10-19T12:26:24.579Z,14.64
2018-10-19T12:28:53.005Z,14.67
2018-10-19T12:31:21.420Z,14.68
2018-10-19T12:33:49.875Z,14.71
2018-10-19T12:36:18.295Z,14.74
2018-10-19T12:38:46.676Z,14.81
2018-10-19T12:41:15.630Z,14.82
2018-10-19T12:43:43.970Z,14.86
2018-10-19T12:46:25.239Z,14.90
2018-10-19T12:48:54.288Z,14.97
2018-10-19T12:51:22.721Z,15.00
2018-10-19T12:53:51.155Z,15.04
2018-10-19T12:56:20.493Z,15.07
2018-10-19T12:58:49.984Z,15.46
2018-10-19T13:01:18.584Z,15.60
2018-10-19T13:03:47.003Z,15.78
2018-10-19T13:06:15.384Z,16.11
2018-10-19T13:08:43.836Z,16.07
2018-10-19T13:11:12.275Z,15.88
2018-10-19T13:13:40.700Z,15.67
2018-10-19T13:16:09.171Z,15.64
2018-10-19T13:18:37.564Z,15.65
2018-10-19T13:21:06.009Z,15.66
2018-10-19T13:23:34.691Z,15.61
2018-10-19T13:26:03.477Z,15.63
2018-10-19T13:28:31.976Z,15.54
2018-10-19T13:31:00.425Z,15.45
2018-10-19T13:33:28.818Z,15.42
2018-10-19T13:35:57.264Z,15.39
2018-10-19T13:38:25.842Z,15.29
2018-10-19T13:40:54.868Z,15.24
2018-10-19T13:43:23.750Z,15.23
2018-10-19T13:45:52.660Z,15.25
2018-10-19T13:48:21.632Z,15.27
2018-10-19T13:50:50.036Z,15.31
2018-10-19T13:53:18.410Z,15.32
2018-10-19T13:55:46.881Z,15.35
2018-10-19T13:58:15.360Z,15.41
2018-10-19T14:00:43.825Z,15.39
2018-10-19T14:03:12.271Z,15.35
2018-10-19T14:05:40.801Z,15.38
2018-10-19T14:08:09.087Z,15.42
2018-10-19T14:10:37.517Z,15.44
2018-10-19T14:13:06.226Z,15.46
2018-10-19T14:15:34.624Z,15.48
2018-10-19T14:18:03.414Z,15.53
2018-10-19T14:20:31.815Z,15.56
2018-10-19T14:23:00.317Z,15.60
2018-10-19T14:25:28.687Z,15.58
2018-10-19T14:27:57.109Z,15.52
2018-10-19T14:30:25.577Z,15.47
2018-10-19T14:32:54.011Z,15.45
2018-10-19T14:35:22.449Z,15.41
2018-10-19T14:37:50.866Z,15.38
2018-10-19T14:40:20.355Z,15.35
2018-10-19T14:42:48.917Z,15.31
2018-10-19T14:45:17.829Z,15.28
2018-10-19T14:47:47.205Z,15.30
2018-10-19T14:50:16.881Z,15.31
2018-10-19T14:52:45.315Z,15.29
2018-10-19T14:55:15.262Z,15.25
2018-10-19T14:57:43.685Z,15.23
2018-10-19T15:00:15.662Z,15.22
2018-10-19T15:02:44.075Z,15.22
2018-10-19T15:05:13.909Z,15.22
2018-10-19T15:07:42.333Z,15.22
2018-10-19T15:10:14.378Z,15.20
2018-10-19T15:12:43.067Z,15.18
2018-10-19T15:15:13.962Z,15.16
2018-10-19T15:17:42.353Z,15.14
2018-10-19T15:20:11.355Z,15.14
2018-10-19T15:22:39.797Z,15.12
2018-10-19T15:25:09.204Z,15.09
2018-10-19T15:27:38.236Z,15.05
2018-10-19T15:30:07.995Z,15.03
2018-10-19T15:32:36.516Z,15.00
2018-10-19T15:35:04.979Z,14.99
2018-10-19T15:37:33.426Z,14.99
2018-10-19T15:40:01.887Z,14.96
2018-10-19T15:42:30.282Z,14.93
2018-10-19T15:44:58.722Z,14.92
2018-10-19T15:47:28.897Z,14.91
2018-10-19T15:49:58.332Z,14.89
2018-10-19T15:52:27.247Z,14.86
2018-10-19T15:54:55.632Z,14.84
2018-10-19T15:57:24.128Z,14.83
2018-10-19T15:59:52.480Z,14.83
2018-10-19T16:02:20.935Z,14.80
2018-10-19T16:04:49.999Z,14.79
2018-10-19T16:07:19.032Z,14.75
2018-10-19T16:09:47.614Z,14.75
2018-10-19T16:12:16.175Z,14.76
2018-10-19T16:14:44.626Z,14.73
2018-10-19T16:17:13.083Z,14.71
2018-10-19T16:19:41.848Z,14.70
2018-10-19T16:22:10.304Z,14.69
2018-10-19T16:24:39.496Z,14.69
2018-10-19T16:27:08.018Z,14.67
2018-10-19T16:29:36.409Z,14.67
2018-10-19T16:32:05.469Z,14.62
2018-10-19T16:34:33.949Z,14.59
2018-10-19T16:37:02.383Z,14.55
2018-10-19T16:39:30.816Z,14.54
2018-10-19T16:41:59.442Z,14.55
2018-10-19T16:44:28.857Z,14.53
2018-10-19T16:46:57.272Z,14.52
2018-10-19T16:49:25.696Z,14.50
2018-10-19T16:51:54.137Z,14.46
2018-10-19T16:54:22.602Z,14.45
2018-10-19T16:56:51.004Z,14.41
2018-10-19T16:59:19.485Z,14.39
2018-10-19T17:01:47.876Z,14.38
2018-10-19T17:04:16.335Z,14.36
2018-10-19T17:06:44.730Z,14.33
2018-10-19T17:09:14.210Z,14.30
2018-10-19T17:11:42.926Z,14.27
2018-10-19T17:14:11.688Z,14.25
2018-10-19T17:16:40.107Z,14.25
2018-10-19T17:19:09.943Z,14.24
2018-10-19T17:21:38.411Z,14.23
2018-10-19T17:24:06.901Z,14.23
2018-10-19T17:26:35.325Z,14.20
2018-10-19T17:29:03.785Z,14.20
2018-10-19T17:31:32.281Z,14.21
2018-10-19T17:34:00.576Z,14.20
2018-10-19T17:36:29.013Z,14.18
2018-10-19T17:38:57.461Z,14.13
2018-10-19T17:41:25.886Z,14.13
2018-10-19T17:43:54.313Z,14.12
2018-10-19T17:46:22.733Z,14.11
2018-10-19T17:48:51.566Z,14.09
2018-10-19T17:51:20.024Z,14.07
2018-10-19T17:53:48.469Z,14.06
2018-10-19T17:56:16.911Z,14.04
2018-10-19T17:58:45.346Z,14.00
2018-10-19T18:01:13.731Z,13.93
2018-10-19T18:03:42.200Z,13.91
2018-10-19T18:06:11.723Z,13.84
2018-10-19T18:08:40.040Z,13.78
2018-10-19T18:11:08.553Z,13.76
2018-10-19T18:13:37.011Z,13.70
2018-10-19T18:16:05.566Z,13.68
2018-10-19T18:18:33.913Z,13.66
2018-10-19T18:21:02.436Z,13.64
2018-10-19T18:23:30.856Z,13.60
2018-10-19T18:25:59.323Z,13.59
2018-10-19T18:28:27.727Z,13.62
2018-10-19T18:30:56.155Z,13.58
2018-10-19T18:33:24.532Z,13.55
2018-10-19T18:35:52.987Z,13.57
2018-10-19T18:38:21.382Z,13.53
2018-10-19T18:40:49.845Z,13.54
2018-10-19T18:43:18.253Z,13.55
2018-10-19T18:45:46.631Z,13.50
2018-10-19T18:48:15.068Z,13.44
2018-10-19T18:50:43.565Z,13.38
2018-10-19T18:53:12.051Z,13.34
2018-10-19T18:55:40.417Z,13.36
2018-10-19T18:58:08.835Z,13.33
2018-10-19T19:00:37.273Z,13.28
2018-10-19T19:03:06.190Z,13.31
2018-10-19T19:05:34.651Z,13.36
2018-10-19T19:08:03.111Z,13.33
2018-10-19T19:10:31.562Z,13.28
2018-10-19T19:13:05.310Z,13.28
2018-10-19T19:15:34.265Z,13.25
2018-10-19T19:18:02.686Z,13.22
2018-10-19T19:20:31.446Z,13.15
2018-10-19T19:22:59.883Z,13.07
2018-10-19T19:25:33.656Z,12.97
2018-10-19T19:28:02.646Z,12.91
2018-10-19T19:30:31.123Z,12.93
2018-10-19T19:33:04.928Z,12.93
2018-10-19T19:35:33.361Z,12.91
2018-10-19T19:38:01.881Z,12.89
2018-10-19T19:40:34.416Z,12.82
2018-10-19T19:43:02.836Z,12.83
2018-10-19T19:45:31.273Z,12.85
2018-10-19T19:48:04.963Z,12.83
2018-10-19T19:50:33.466Z,12.83
2018-10-19T19:53:01.919Z,12.83
2018-10-19T19:55:30.323Z,12.78
2018-10-19T19:57:58.852Z,12.75
2018-10-19T20:00:27.277Z,12.59
2018-10-19T20:02:55.776Z,12.41
2018-10-19T20:05:24.220Z,12.26
2018-10-19T20:07:52.721Z,12.20
2018-10-19T20:10:21.164Z,12.24
2018-10-19T20:12:49.579Z,12.26
2018-10-19T20:15:18.007Z,12.31
2018-10-19T20:17:46.409Z,12.29
2018-10-19T20:20:14.915Z,12.30
2018-10-19T20:22:43.447Z,12.30
2018-10-19T20:25:12.666Z,12.26
2018-10-19T20:27:41.560Z,12.24
2018-10-19T20:30:12.772Z,12.21
2018-10-19T20:32:41.195Z,12.15
2018-10-19T20:35:10.116Z,11.91
2018-10-19T20:37:38.483Z,11.84
2018-10-19T20:40:07.019Z,11.84
2018-10-19T20:42:35.505Z,11.85
2018-10-19T20:45:04.506Z,11.83
2018-10-19T20:47:32.977Z,11.79
2018-10-19T20:50:01.449Z,11.71
2018-10-19T20:52:29.833Z,11.61
2018-10-19T20:54:58.229Z,11.47
2018-10-19T20:57:26.662Z,11.49
2018-10-19T20:59:55.073Z,11.54
2018-10-19T21:02:23.494Z,11.51
2018-10-19T21:04:51.941Z,11.51
2018-10-19T21:07:20.556Z,11.55
2018-10-19T21:09:48.885Z,11.52
2018-10-19T21:12:17.329Z,11.38
2018-10-19T21:14:45.778Z,11.30
2018-10-19T21:17:14.273Z,11.28
2018-10-19T21:19:42.625Z,11.30
2018-10-19T21:22:11.049Z,11.33
2018-10-19T21:24:39.488Z,11.33
2018-10-19T21:27:07.937Z,11.36
2018-10-19T21:29:36.386Z,11.38
2018-10-19T21:32:04.927Z,11.37
2018-10-19T21:34:33.372Z,11.34
2018-10-19T21:37:02.757Z,11.30
2018-10-19T21:39:31.160Z,11.26
2018-10-19T21:42:02.198Z,11.26
2018-10-19T21:44:31.579Z,11.30
2018-10-19T21:47:00.046Z,11.29
2018-10-19T21:49:29.551Z,11.31
2018-10-19T21:51:58.351Z,11.19
2018-10-19T21:54:27.803Z,11.11
2018-10-19T21:56:56.934Z,11.06
2018-10-19T21:59:25.352Z,10.97
2018-10-19T22:01:53.790Z,10.57
2018-10-19T22:04:22.229Z,10.92
2018-10-19T22:06:50.669Z,10.96
2018-10-19T22:09:19.081Z,11.01
2018-10-19T22:11:47.496Z,11.02
2018-10-19T22:14:15.955Z,11.07
2018-10-19T22:16:44.421Z,11.01
2018-10-19T22:19:12.900Z,11.01
2018-10-19T22:21:41.680Z,10.97
2018-10-19T22:24:10.857Z,10.99
2018-10-19T22:26:39.655Z,10.97
2018-10-19T22:29:08.317Z,10.89
2018-10-19T22:31:36.895Z,10.84
2018-10-19T22:34:05.492Z,10.75
2018-10-19T22:36:33.881Z,10.76
2018-10-19T22:39:02.990Z,10.78
2018-10-19T22:41:31.420Z,10.78
2018-10-19T22:43:59.785Z,10.74
2018-10-19T22:46:28.257Z,10.73
2018-10-19T22:48:56.730Z,10.69
2018-10-19T22:51:25.250Z,10.67
2018-10-19T22:53:53.614Z,10.64
2018-10-19T22:56:22.106Z,10.60
2018-10-19T22:58:50.589Z,10.51
2018-10-19T23:01:19.689Z,10.50
2018-10-19T23:03:48.206Z,10.46
2018-10-19T23:06:16.670Z,10.40
2018-10-19T23:08:45.127Z,10.31
2018-10-19T23:11:13.753Z,10.28
2018-10-19T23:13:42.200Z,10.27
2018-10-19T23:16:10.676Z,10.28
2018-10-19T23:18:39.128Z,10.28
2018-10-19T23:21:07.553Z,10.27
2018-10-19T23:23:35.965Z,10.32
2018-10-19T23:26:04.534Z,10.33
2018-10-19T23:28:32.949Z,10.27
2018-10-19T23:31:01.533Z,10.22
2018-10-19T23:33:29.959Z,10.27
2018-10-19T23:35:59.384Z,10.22
2018-10-19T23:38:27.787Z,10.12
2018-10-19T23:40:56.248Z,10.00
2018-10-19T23:43:24.615Z,9.96
2018-10-19T23:45:53.017Z,9.94
2018-10-19T23:48:21.453Z,9.97
2018-10-19T23:50:49.860Z,9.93
2018-10-19T23:53:18.313Z,9.91
2018-10-19T23:55:46.721Z,9.84
2018-10-19T23:58:15.121Z,9.79
